Time;durP1;ratioP1;P1;durP2;ratioP2;P2;SDS_P1;SDS_P2;PMS_P1;PMS_P2;Temp;Humidity;BMP_temperature;BMP_pressure;BME280_temperature;BME280_humidity;BME280_pressure;Samples;Min_cycle;Max_cycle;Signal;HPM_P1;HPM_P2
2024/01/04 00:01:17;;;;;;;5.40;5.10;;;8.70;99.90;;;;;;5038269;28;20478;-80
2024/01/04 00:03:47;;;;;;;5.80;5.63;;;8.70;99.90;;;;;;5038059;28;20523;-79
2024/01/04 00:06:17;;;;;;;5.00;4.70;;;8.70;99.90;;;;;;5035199;28;20469;-80
2024/01/04 00:08:45;;;;;;;4.97;4.77;;;8.70;1.00;;;;;;5035986;28;20448;-81
2024/01/04 00:11:14;;;;;;;5.20;4.90;;;8.80;1.00;;;;;;5037138;28;20480;-80
2024/01/04 00:13:43;;;;;;;5.50;5.10;;;8.70;99.90;;;;;;5037751;28;20465;-80
2024/01/04 00:16:12;;;;;;;4.73;4.63;;;8.70;99.90;;;;;;5038423;28;20571;-79
2024/01/04 00:18:40;;;;;;;6.13;5.90;;;8.70;1.00;;;;;;5042589;28;20441;-79
2024/01/04 00:21:14;;;;;;;4.80;4.70;;;8.80;1.00;;;;;;5040915;28;20460;-80
2024/01/04 00:23:42;;;;;;;5.77;5.13;;;8.70;99.90;;;;;;5039792;28;20459;-79
2024/01/04 00:26:11;;;;;;;5.60;5.30;;;8.70;99.90;;;;;;5042431;28;20456;-80
2024/01/04 00:28:39;;;;;;;5.40;5.20;;;8.80;19.40;;;;;;5042347;28;20458;-79
2024/01/04 00:31:07;;;;;;;5.33;5.13;;;8.80;1.00;;;;;;5042527;28;20598;-79
2024/01/04 00:33:38;;;;;;;5.20;5.00;;;8.80;1.00;;;;;;5040476;28;20519;-79
2024/01/04 00:36:09;;;;;;;5.83;5.43;;;8.80;1.00;;;;;;5035169;28;21209;-79
2024/01/04 00:38:39;;;;;;;5.30;5.13;;;8.80;15.00;;;;;;5039070;28;20453;-78
2024/01/04 00:41:08;;;;;;;5.03;4.83;;;8.70;99.90;;;;;;5037156;28;20476;-80
2024/01/04 00:43:38;;;;;;;5.53;5.23;;;8.70;1.00;;;;;;5039451;28;20547;-79
2024/01/04 00:46:06;;;;;;;5.77;5.57;;;8.70;99.90;;;;;;5040547;28;20467;-81
2024/01/04 00:48:35;;;;;;;6.40;5.57;;;8.70;99.90;;;;;;5036613;28;20547;-79
2024/01/04 00:51:03;;;;;;;5.63;5.43;;;8.70;99.90;;;;;;5039426;28;20514;-78
2024/01/04 00:53:31;;;;;;;5.67;5.23;;;8.70;1.00;;;;;;5040729;28;20446;-79
2024/01/04 00:56:01;;;;;;;5.60;5.20;;;8.70;1.00;;;;;;5037597;28;20568;-80
2024/01/04 00:58:29;;;;;;;5.33;5.23;;;8.70;13.80;;;;;;5038543;28;20993;-80
2024/01/04 01:00:58;;;;;;;5.70;5.40;;;8.70;1.00;;;;;;5033816;28;20478;-80
2024/01/04 01:03:26;;;;;;;5.70;5.50;;;8.70;1.00;;;;;;5040370;28;20973;-80
2024/01/04 01:05:55;;;;;;;7.27;6.77;;;8.70;1.00;;;;;;5038456;28;21015;-80
2024/01/04 01:08:24;;;;;;;6.23;5.93;;;8.70;99.90;;;;;;5037357;28;20503;-82
2024/01/04 01:10:52;;;;;;;5.67;5.37;;;8.70;99.90;;;;;;5034563;28;20554;-80
2024/01/04 01:13:22;;;;;;;6.00;5.60;;;8.60;99.90;;;;;;5036915;28;20539;-80
2024/01/04 01:15:50;;;;;;;5.93;5.70;;;8.70;1.00;;;;;;5038845;28;20480;-80
2024/01/04 01:18:18;;;;;;;6.27;5.67;;;8.70;99.90;;;;;;5040602;28;21223;-78
2024/01/04 01:20:47;;;;;;;5.80;5.50;;;8.60;1.00;;;;;;5040919;28;20919;-80
2024/01/04 01:23:16;;;;;;;5.80;5.60;;;8.60;1.00;;;;;;5039162;28;20976;-79
2024/01/04 01:25:44;;;;;;;5.97;5.40;;;8.60;99.90;;;;;;5040239;28;20460;-79
2024/01/04 01:28:12;;;;;;;5.60;5.50;;;8.50;90.00;;;;;;5039586;28;21039;-80
2024/01/04 01:30:45;;;;;;;5.53;5.43;;;8.60;99.90;;;;;;5038301;28;20510;-79
2024/01/04 01:33:13;;;;;;;6.17;5.90;;;8.50;1.00;;;;;;5043360;28;20520;-79
2024/01/04 01:35:42;;;;;;;6.27;5.97;;;8.50;99.90;;;;;;5041844;28;20488;-80
2024/01/04 01:38:10;;;;;;;7.03;6.53;;;8.50;97.90;;;;;;5039587;28;20484;-81
2024/01/04 01:40:38;;;;;;;6.27;5.73;;;8.60;99.90;;;;;;5042728;28;20527;-79
2024/01/04 01:43:06;;;;;;;6.13;5.93;;;8.60;1.00;;;;;;5040334;28;20466;-79
2024/01/04 01:45:35;;;;;;;5.83;5.73;;;8.60;99.90;;;;;;5043427;28;20498;-80
2024/01/04 01:48:05;;;;;;;6.70;6.10;;;8.60;99.90;;;;;;5036616;28;20547;-80
2024/01/04 01:50:35;;;;;;;6.47;6.07;;;8.60;99.90;;;;;;5040570;28;20467;-79
2024/01/04 01:53:03;;;;;;;5.80;5.70;;;8.60;99.90;;;;;;5046880;28;20532;-80
2024/01/04 01:55:32;;;;;;;5.90;5.80;;;8.60;1.00;;;;;;5038719;28;20455;-81
2024/01/04 01:58:00;;;;;;;5.90;5.80;;;8.60;1.00;;;;;;5039359;28;20511;-80
2024/01/04 02:00:29;;;;;;;6.23;6.03;;;8.50;99.90;;;;;;5040053;28;21062;-81
2024/01/04 02:02:58;;;;;;;6.17;6.07;;;8.50;99.90;;;;;;5040085;28;20465;-80
2024/01/04 02:05:29;;;;;;;5.70;5.60;;;8.50;90.70;;;;;;5040489;28;20457;-80
2024/01/04 02:07:58;;;;;;;5.73;5.50;;;8.50;1.00;;;;;;5039697;28;20833;-81
2024/01/04 02:10:26;;;;;;;5.77;5.60;;;8.40;99.90;;;;;;5042569;28;20506;-79
2024/01/04 02:12:54;;;;;;;5.30;5.10;;;8.30;99.90;;;;;;5055383;28;20462;-79
2024/01/04 02:15:22;;;;;;;5.20;5.10;;;8.40;1.00;;;;;;5037478;28;20461;-81
2024/01/04 02:17:51;;;;;;;5.40;5.30;;;8.40;99.90;;;;;;5037979;28;20559;-80
2024/01/04 02:20:20;;;;;;;5.10;5.00;;;8.40;1.00;;;;;;5038916;28;20500;-79
2024/01/04 02:22:51;;;;;;;5.17;5.07;;;8.30;99.90;;;;;;5038611;28;20822;-80
2024/01/04 02:25:20;;;;;;;4.90;4.80;;;8.40;1.00;;;;;;5040695;28;20445;-78
2024/01/04 02:27:48;;;;;;;5.07;4.90;;;8.40;1.00;;;;;;5040225;28;20459;-80
2024/01/04 02:30:16;;;;;;;5.40;5.20;;;8.30;99.90;;;;;;5041134;28;20559;-80
2024/01/04 02:32:46;;;;;;;5.20;5.00;;;8.30;99.90;;;;;;5037331;28;20438;-80
2024/01/04 02:35:15;;;;;;;5.30;5.20;;;8.30;99.90;;;;;;5038990;28;20468;-79
2024/01/04 02:37:44;;;;;;;5.40;5.30;;;8.30;1.00;;;;;;5038816;28;20480;-81
2024/01/04 02:40:14;;;;;;;5.30;5.20;;;8.30;99.90;;;;;;5037875;28;21031;-81
2024/01/04 02:42:42;;;;;;;5.30;5.20;;;8.30;99.90;;;;;;5035850;28;20528;-79
2024/01/04 02:45:11;;;;;;;5.00;4.90;;;8.20;99.90;;;;;;5021182;28;20953;-80
2024/01/04 02:47:39;;;;;;;5.40;5.20;;;8.20;1.00;;;;;;5032639;28;20905;-81
2024/01/04 02:50:08;;;;;;;5.00;4.90;;;8.10;99.90;;;;;;5034227;28;21044;-79
2024/01/04 02:52:36;;;;;;;4.70;4.57;;;8.00;99.90;;;;;;5039311;28;20889;-80
2024/01/04 02:55:05;;;;;;;4.50;4.40;;;8.10;1.00;;;;;;5039618;28;20468;-79
2024/01/04 02:57:34;;;;;;;4.57;4.47;;;8.00;50.40;;;;;;5036907;28;20487;-79
2024/01/04 03:00:03;;;;;;;4.47;4.37;;;7.90;1.00;;;;;;5046802;28;20550;-80
2024/01/04 03:02:31;;;;;;;4.77;4.60;;;8.00;1.00;;;;;;5033753;28;20976;-80
2024/01/04 03:04:59;;;;;;;5.00;4.90;;;8.00;99.90;;;;;;5036526;28;20444;-79
2024/01/04 03:07:28;;;;;;;4.63;4.53;;;7.90;1.00;;;;;;5034474;28;20464;-79
2024/01/04 03:09:56;;;;;;;4.57;4.47;;;7.90;99.90;;;;;;5038342;28;21112;-80
2024/01/04 03:12:24;;;;;;;4.60;4.50;;;7.90;1.00;;;;;;5038277;28;21106;-79
2024/01/04 03:14:54;;;;;;;4.73;4.50;;;7.90;99.90;;;;;;5035948;28;20561;-80
2024/01/04 03:17:23;;;;;;;4.50;4.40;;;8.00;1.00;;;;;;5037280;28;20476;-80
2024/01/04 03:19:51;;;;;;;4.50;4.40;;;8.00;99.90;;;;;;5038252;28;20480;-81
2024/01/04 03:22:19;;;;;;;4.60;4.50;;;7.90;99.90;;;;;;5035178;28;20508;-80
2024/01/04 03:24:47;;;;;;;4.60;4.50;;;7.80;99.90;;;;;;5037093;28;20448;-78
2024/01/04 03:27:16;;;;;;;4.50;4.40;;;7.90;1.00;;;;;;5035899;28;20452;-80
2024/01/04 03:29:44;;;;;;;4.90;4.80;;;7.90;1.00;;;;;;5022230;28;20889;-79
2024/01/04 03:32:14;;;;;;;4.80;4.70;;;7.90;99.90;;;;;;5035986;28;20966;-81
2024/01/04 03:34:42;;;;;;;4.90;4.80;;;7.90;1.00;;;;;;5035119;28;20472;-80
2024/01/04 03:37:10;;;;;;;4.60;4.50;;;7.90;86.80;;;;;;5035725;28;20475;-80
2024/01/04 03:39:39;;;;;;;4.97;4.87;;;8.00;99.90;;;;;;5037553;28;20477;-79
2024/01/04 03:42:07;;;;;;;5.10;5.00;;;8.00;1.00;;;;;;5033998;28;20460;-79
2024/01/04 03:44:36;;;;;;;5.00;4.90;;;7.90;1.00;;;;;;5049910;28;20452;-79
2024/01/04 03:47:05;;;;;;;5.00;4.90;;;8.00;99.90;;;;;;5034671;28;20452;-79
2024/01/04 03:49:35;;;;;;;4.90;4.80;;;8.00;99.90;;;;;;5034734;28;21040;-80
2024/01/04 03:52:04;;;;;;;5.30;5.20;;;8.00;99.90;;;;;;5040786;28;20992;-78
2024/01/04 03:54:32;;;;;;;5.03;4.93;;;8.00;99.90;;;;;;5038145;28;20476;-79
2024/01/04 03:57:00;;;;;;;5.40;5.20;;;8.00;1.00;;;;;;5038799;28;20441;-79
2024/01/04 03:59:29;;;;;;;5.47;5.37;;;8.00;99.90;;;;;;5039189;28;20571;-79
2024/01/04 04:01:57;;;;;;;5.40;5.30;;;8.00;28.40;;;;;;5040966;28;20583;-80
2024/01/04 04:04:26;;;;;;;5.60;5.40;;;8.00;1.00;;;;;;5038893;28;20463;-80
2024/01/04 04:06:56;;;;;;;5.40;5.30;;;8.00;99.90;;;;;;5037491;28;20451;-79
2024/01/04 04:09:24;;;;;;;5.60;5.50;;;8.10;39.30;;;;;;5038388;28;20571;-79
2024/01/04 04:11:53;;;;;;;6.20;6.00;;;8.00;99.90;;;;;;5039104;28;20452;-78
2024/01/04 04:14:21;;;;;;;5.90;5.70;;;8.10;99.90;;;;;;5042076;28;20464;-79
2024/01/04 04:16:50;;;;;;;5.87;5.77;;;8.10;1.00;;;;;;5037753;28;20503;-80
2024/01/04 04:19:18;;;;;;;5.83;5.60;;;8.00;95.00;;;;;;5041367;28;20504;-80
2024/01/04 04:21:47;;;;;;;7.30;6.90;;;8.10;4.70;;;;;;5039547;28;20458;-79
2024/01/04 04:24:16;;;;;;;5.90;5.80;;;8.10;1.00;;;;;;5039782;28;20468;-79
2024/01/04 04:26:45;;;;;;;6.30;6.10;;;8.20;1.00;;;;;;5040925;28;20494;-80
2024/01/04 04:29:13;;;;;;;6.20;5.80;;;8.20;99.90;;;;;;5037743;28;20483;-79
2024/01/04 04:31:41;;;;;;;6.40;6.20;;;8.20;99.90;;;;;;5039191;28;20540;-80
2024/01/04 04:34:10;;;;;;;6.53;6.30;;;8.10;99.90;;;;;;5040165;28;20487;-80
2024/01/04 04:36:40;;;;;;;6.30;6.10;;;8.10;1.00;;;;;;5038393;28;21038;-79
2024/01/04 04:39:09;;;;;;;6.30;6.20;;;8.10;1.00;;;;;;5039416;28;20567;-80
2024/01/04 04:41:39;;;;;;;6.37;6.07;;;8.10;1.00;;;;;;5040290;28;20449;-78
2024/01/04 04:44:08;;;;;;;6.37;6.17;;;8.10;99.90;;;;;;5040159;28;20476;-79
2024/01/04 04:46:36;;;;;;;6.50;6.30;;;8.10;99.90;;;;;;5040271;28;21036;-81
2024/01/04 04:49:04;;;;;;;6.43;6.30;;;8.20;1.00;;;;;;5039511;28;20460;-79
2024/01/04 04:51:33;;;;;;;6.27;6.07;;;8.20;99.90;;;;;;5041679;28;20456;-80
2024/01/04 04:54:03;;;;;;;6.10;6.00;;;8.20;99.90;;;;;;5039301;28;20459;-78
2024/01/04 04:56:31;;;;;;;6.20;6.00;;;8.20;99.90;;;;;;5038321;28;20444;-80
2024/01/04 04:59:02;;;;;;;6.47;6.20;;;8.20;1.00;;;;;;5039047;28;20564;-79
2024/01/04 05:01:30;;;;;;;6.57;6.20;;;8.20;99.90;;;;;;5038102;28;20464;-79
2024/01/04 05:03:59;;;;;;;6.77;6.40;;;8.20;99.90;;;;;;5038176;28;20546;-80
2024/01/04 05:06:27;;;;;;;6.30;6.20;;;8.20;1.00;;;;;;5039310;28;20459;-79
2024/01/04 05:08:56;;;;;;;6.17;5.97;;;8.20;1.00;;;;;;5053838;28;20448;-79
2024/01/04 05:11:24;;;;;;;6.10;5.90;;;8.20;1.00;;;;;;5040028;28;20564;-80
2024/01/04 05:13:52;;;;;;;6.10;5.90;;;8.30;17.50;;;;;;5038826;28;20830;-80
2024/01/04 05:16:22;;;;;;;6.50;6.30;;;8.30;99.90;;;;;;5039449;28;20974;-78
2024/01/04 05:18:50;;;;;;;6.10;6.00;;;8.30;1.00;;;;;;5041814;28;20551;-79
2024/01/04 05:21:19;;;;;;;5.93;5.63;;;8.30;99.90;;;;;;5036159;28;21036;-80
2024/01/04 05:23:47;;;;;;;5.67;5.57;;;8.30;54.70;;;;;;5032958;28;21065;-80
2024/01/04 05:26:23;;;;;;;5.97;5.67;;;8.30;1.00;;;;;;5037094;28;20569;-79
2024/01/04 05:28:51;;;;;;;5.90;5.70;;;8.30;99.90;;;;;;5037814;28;20432;-78
2024/01/04 05:31:22;;;;;;;5.87;5.77;;;8.30;1.00;;;;;;5035880;28;20472;-79
2024/01/04 05:33:50;;;;;;;5.57;5.30;;;8.20;99.90;;;;;;5041106;28;20548;-79
2024/01/04 05:36:19;;;;;;;5.83;5.73;;;8.20;99.90;;;;;;5037852;28;20449;-80
2024/01/04 05:38:47;;;;;;;5.50;5.30;;;8.20;1.00;;;;;;5039249;28;20472;-79
2024/01/04 05:41:16;;;;;;;5.10;5.00;;;8.20;1.00;;;;;;5037460;28;20476;-80
2024/01/04 05:43:44;;;;;;;5.40;5.30;;;8.10;99.90;;;;;;5036356;28;20552;-79
2024/01/04 05:46:12;;;;;;;5.40;5.30;;;8.00;99.90;;;;;;5035997;28;20449;-80
2024/01/04 05:48:42;;;;;;;5.53;5.37;;;8.00;1.00;;;;;;5037837;28;21227;-79
2024/01/04 05:51:10;;;;;;;5.80;5.40;;;8.10;1.00;;;;;;5036279;28;20898;-79
2024/01/04 05:53:38;;;;;;;5.50;5.40;;;8.10;26.30;;;;;;5037858;28;20451;-78
2024/01/04 05:56:07;;;;;;;5.70;5.60;;;8.20;99.90;;;;;;5037360;28;21375;-80
2024/01/04 05:58:35;;;;;;;5.87;5.67;;;8.20;99.90;;;;;;5036457;28;20480;-79
2024/01/04 06:01:04;;;;;;;5.67;5.47;;;8.30;99.90;;;;;;5036199;28;21009;-81
2024/01/04 06:03:32;;;;;;;5.87;5.70;;;8.20;49.60;;;;;;5035447;28;20461;-80
2024/01/04 06:06:02;;;;;;;6.13;5.87;;;8.20;99.90;;;;;;5039179;28;20460;-79
2024/01/04 06:08:30;;;;;;;5.87;5.67;;;8.30;99.90;;;;;;5038305;28;20448;-79
2024/01/04 06:10:59;;;;;;;5.60;5.40;;;8.10;1.00;;;;;;5038569;28;20873;-79
2024/01/04 06:13:27;;;;;;;5.70;5.60;;;8.20;72.50;;;;;;5037685;28;20456;-79
2024/01/04 06:15:55;;;;;;;5.93;5.73;;;8.20;99.90;;;;;;5037883;28;20473;-80
2024/01/04 06:18:24;;;;;;;5.57;5.43;;;8.20;1.00;;;;;;5037603;28;20457;-79
2024/01/04 06:20:53;;;;;;;5.87;5.77;;;8.20;99.90;;;;;;5038371;28;20823;-80
2024/01/04 06:23:23;;;;;;;6.70;6.50;;;8.20;99.90;;;;;;5039500;28;20536;-78
2024/01/04 06:25:52;;;;;;;6.50;6.10;;;8.20;99.90;;;;;;5036457;28;20460;-79
2024/01/04 06:28:20;;;;;;;6.77;6.50;;;8.20;1.00;;;;;;5036666;28;20484;-79
2024/01/04 06:30:48;;;;;;;5.90;5.70;;;8.20;99.90;;;;;;5038716;28;20487;-79
2024/01/04 06:33:17;;;;;;;6.87;6.40;;;8.10;1.00;;;;;;5039535;28;20832;-80
2024/01/04 06:35:46;;;;;;;6.37;6.00;;;8.10;1.00;;;;;;5037527;28;20451;-79
2024/01/04 06:38:14;;;;;;;6.17;5.83;;;8.10;99.90;;;;;;5036402;28;20448;-79
2024/01/04 06:40:44;;;;;;;6.17;5.90;;;8.20;99.90;;;;;;5031641;28;20476;-80
2024/01/04 06:43:12;;;;;;;6.17;5.90;;;8.20;99.90;;;;;;5037804;28;20456;-80
2024/01/04 06:45:40;;;;;;;5.97;5.73;;;8.10;99.90;;;;;;5037576;28;20461;-79
2024/01/04 06:48:09;;;;;;;6.53;6.23;;;8.10;12.00;;;;;;5033833;28;20457;-79
2024/01/04 06:50:38;;;;;;;5.83;5.43;;;8.10;1.00;;;;;;5032219;28;21166;-80
2024/01/04 06:53:06;;;;;;;6.00;5.57;;;8.10;99.90;;;;;;5036684;28;20519;-78
2024/01/04 06:55:34;;;;;;;6.30;5.90;;;8.10;1.00;;;;;;5035680;28;21020;-78
2024/01/04 06:58:04;;;;;;;5.90;5.70;;;8.20;1.00;;;;;;5031437;28;21009;-79
2024/01/04 07:00:33;;;;;;;5.73;5.50;;;8.10;1.00;;;;;;5032766;28;20481;-78
2024/01/04 07:03:01;;;;;;;6.03;5.60;;;8.00;99.90;;;;;;5036928;28;20515;-79
2024/01/04 07:05:30;;;;;;;5.33;5.23;;;8.00;1.00;;;;;;5036808;28;20444;-78
2024/01/04 07:07:58;;;;;;;5.67;5.37;;;8.00;99.90;;;;;;5035791;28;20452;-79
2024/01/04 07:10:26;;;;;;;5.50;5.20;;;8.00;1.00;;;;;;5036739;28;20562;-77
2024/01/04 07:12:55;;;;;;;6.00;5.40;;;7.90;1.00;;;;;;5037908;28;20455;-78
2024/01/04 07:15:24;;;;;;;6.50;6.03;;;8.00;1.00;;;;;;5035979;28;20452;-78
2024/01/04 07:17:53;;;;;;;6.03;5.83;;;7.80;99.90;;;;;;5037486;28;20484;-78
2024/01/04 07:20:21;;;;;;;5.40;5.20;;;7.80;1.00;;;;;;5034231;28;21085;-76
2024/01/04 07:22:53;;;;;;;5.80;5.60;;;7.90;99.90;;;;;;5035960;28;20980;-79
2024/01/04 07:25:23;;;;;;;5.70;5.40;;;7.80;1.00;;;;;;5035222;28;20506;-78
2024/01/04 07:27:52;;;;;;;5.63;5.53;;;7.90;99.60;;;;;;5029706;28;20445;-77
2024/01/04 07:30:20;;;;;;;5.60;5.40;;;8.00;1.00;;;;;;5034155;28;20507;-79
2024/01/04 07:32:50;;;;;;;5.57;5.37;;;7.80;1.00;;;;;;5035275;28;20461;-78
2024/01/04 07:35:23;;;;;;;5.97;5.67;;;7.90;99.90;;;;;;5035045;28;20460;-77
2024/01/04 07:37:51;;;;;;;5.50;5.37;;;7.80;99.90;;;;;;5035446;28;20459;-77
2024/01/04 07:40:19;;;;;;;6.53;6.13;;;7.90;99.90;;;;;;5033475;28;20468;-78
2024/01/04 07:42:48;;;;;;;6.20;5.90;;;7.90;99.90;;;;;;5038241;28;20465;-77
2024/01/04 07:45:16;;;;;;;5.93;5.73;;;7.90;99.90;;;;;;5035539;28;20449;-78
2024/01/04 07:47:44;;;;;;;6.00;5.90;;;7.90;1.00;;;;;;5034852;28;20456;-77
2024/01/04 07:50:14;;;;;;;6.77;6.20;;;7.90;99.90;;;;;;5036141;28;20473;-79
2024/01/04 07:52:43;;;;;;;6.40;5.90;;;7.90;3.10;;;;;;5034969;28;20492;-78
2024/01/04 07:55:11;;;;;;;5.90;5.70;;;7.90;99.90;;;;;;5036272;28;20468;-78
2024/01/04 07:57:40;;;;;;;6.00;5.70;;;7.80;1.00;;;;;;5033947;28;20479;-78
2024/01/04 08:00:09;;;;;;;5.57;5.37;;;7.90;1.00;;;;;;5036784;28;20487;-78
2024/01/04 08:02:39;;;;;;;5.37;5.23;;;7.80;1.00;;;;;;5032419;28;20461;-78
2024/01/04 08:05:09;;;;;;;5.83;5.40;;;7.80;1.00;;;;;;5051573;28;20448;-80
2024/01/04 08:07:39;;;;;;;5.60;5.20;;;7.90;34.50;;;;;;5033868;28;20542;-79
2024/01/04 08:10:10;;;;;;;5.60;5.10;;;7.90;99.90;;;;;;5034768;28;20480;-79
2024/01/04 08:12:41;;;;;;;5.40;5.00;;;7.90;1.00;;;;;;5035398;28;20456;-78
2024/01/04 08:15:11;;;;;;;6.00;5.60;;;7.90;1.00;;;;;;5035287;28;20471;-78
2024/01/04 08:17:40;;;;;;;5.70;5.30;;;8.00;99.90;;;;;;5037563;28;20440;-78
2024/01/04 08:20:09;;;;;;;5.60;5.20;;;8.00;47.70;;;;;;5035595;28;20558;-77
2024/01/04 08:22:39;;;;;;;5.93;5.53;;;8.00;1.00;;;;;;5036903;28;20451;-78
2024/01/04 08:25:09;;;;;;;5.20;5.00;;;8.20;1.00;;;;;;5036435;28;20616;-79
2024/01/04 08:27:37;;;;;;;5.57;5.17;;;8.30;1.00;;;;;;5029789;28;20676;-78
2024/01/04 08:30:07;;;;;;;5.13;4.77;;;8.30;1.00;;;;;;5035927;28;20504;-78
2024/01/04 08:32:35;;;;;;;4.70;4.60;;;8.50;1.00;;;;;;5038911;28;20928;-79
2024/01/04 08:35:04;;;;;;;4.83;4.53;;;8.50;99.90;;;;;;5035728;28;20550;-78
2024/01/04 08:37:33;;;;;;;6.63;6.07;;;8.50;99.90;;;;;;5035004;28;20445;-79
2024/01/04 08:40:04;;;;;;;4.60;4.50;;;8.50;1.00;;;;;;5039368;28;20476;-77
2024/01/04 08:42:32;;;;;;;4.57;4.37;;;8.50;99.90;;;;;;5040845;28;20466;-82
2024/01/04 08:45:01;;;;;;;4.57;4.47;;;8.50;24.70;;;;;;5042054;28;20456;-78
2024/01/04 08:47:29;;;;;;;4.80;4.60;;;8.50;61.00;;;;;;5040759;28;20817;-80
2024/01/04 08:50:00;;;;;;;4.50;4.40;;;8.50;93.50;;;;;;5038218;28;20851;-80
2024/01/04 08:52:29;;;;;;;4.60;4.40;;;8.40;57.40;;;;;;5039081;28;20449;-79
2024/01/04 08:54:57;;;;;;;4.60;4.40;;;8.50;1.00;;;;;;5040844;28;20480;-79
2024/01/04 08:57:27;;;;;;;4.50;4.40;;;8.50;54.10;;;;;;5038331;28;20878;-79
2024/01/04 08:59:55;;;;;;;4.80;4.60;;;8.50;1.00;;;;;;5040055;28;20487;-79
2024/01/04 09:02:24;;;;;;;4.40;4.13;;;8.40;56.10;;;;;;5038536;28;20453;-79
2024/01/04 09:04:52;;;;;;;4.67;4.47;;;8.40;1.00;;;;;;5038680;28;20457;-79
2024/01/04 09:07:21;;;;;;;5.00;4.40;;;8.30;99.90;;;;;;5032507;28;21476;-78
2024/01/04 09:09:51;;;;;;;4.80;4.50;;;8.30;99.90;;;;;;5036903;28;20478;-78
2024/01/04 09:12:19;;;;;;;4.90;4.57;;;8.40;99.90;;;;;;5036362;28;20456;-79
2024/01/04 09:14:49;;;;;;;4.47;4.27;;;8.40;48.50;;;;;;5040330;28;20452;-79
2024/01/04 09:17:17;;;;;;;4.40;4.10;;;8.40;1.00;;;;;;5038786;28;20456;-80
2024/01/04 09:19:46;;;;;;;4.67;4.30;;;8.50;1.00;;;;;;5036702;28;20523;-79
2024/01/04 09:22:14;;;;;;;4.20;4.00;;;8.60;1.00;;;;;;5039275;28;21021;-79
2024/01/04 09:24:42;;;;;;;4.33;4.20;;;8.60;1.00;;;;;;5039085;28;20452;-77
2024/01/04 09:27:12;;;;;;;4.20;4.10;;;8.70;99.90;;;;;;5033806;28;20468;-78
2024/01/04 09:29:42;;;;;;;4.50;4.20;;;8.70;99.90;;;;;;5035607;28;20480;-79
2024/01/04 09:32:11;;;;;;;4.63;4.50;;;8.80;99.90;;;;;;5037844;28;20455;-78
2024/01/04 09:34:40;;;;;;;4.20;4.00;;;8.90;99.90;;;;;;5039236;28;20535;-77
2024/01/04 09:37:08;;;;;;;4.27;4.07;;;9.00;99.90;;;;;;5036924;28;21176;-79
2024/01/04 09:39:39;;;;;;;4.83;4.60;;;9.10;99.90;;;;;;5039620;28;20476;-78
2024/01/04 09:42:09;;;;;;;5.43;4.93;;;9.10;76.40;;;;;;5038877;28;20568;-78
2024/01/04 09:44:38;;;;;;;3.90;3.80;;;9.10;99.90;;;;;;5036000;28;20456;-79
2024/01/04 09:47:09;;;;;;;4.30;4.00;;;9.20;91.80;;;;;;5038949;28;20869;-79
2024/01/04 09:49:39;;;;;;;4.87;4.67;;;9.50;23.30;;;;;;5036515;28;20486;-79
2024/01/04 09:52:09;;;;;;;5.40;4.70;;;9.60;1.00;;;;;;5038964;28;21064;-79
2024/01/04 09:54:40;;;;;;;5.03;4.47;;;9.50;1.00;;;;;;5039966;28;20496;-78
2024/01/04 09:57:10;;;;;;;4.10;4.00;;;9.40;1.00;;;;;;5028809;28;20448;-77
2024/01/04 09:59:38;;;;;;;4.20;4.10;;;9.20;1.00;;;;;;5039056;28;20913;-80
2024/01/04 10:02:11;;;;;;;4.20;4.00;;;9.10;1.00;;;;;;5036974;28;20937;-79
2024/01/04 10:04:43;;;;;;;4.87;4.53;;;9.10;1.00;;;;;;5038048;28;20455;-78
2024/01/04 10:07:15;;;;;;;4.60;4.50;;;9.10;1.00;;;;;;5038515;28;20898;-79
2024/01/04 10:09:49;;;;;;;4.47;4.30;;;9.20;1.00;;;;;;5040517;28;20472;-78
2024/01/04 10:12:18;;;;;;;4.20;4.10;;;9.20;1.00;;;;;;5037272;28;20586;-79
2024/01/04 10:14:48;;;;;;;4.83;4.53;;;9.10;16.70;;;;;;5036618;28;20899;-78
2024/01/04 10:17:16;;;;;;;4.03;3.87;;;9.10;99.90;;;;;;5038257;28;20448;-79
2024/01/04 10:19:45;;;;;;;4.40;4.10;;;9.10;99.50;;;;;;5038639;28;20475;-77
2024/01/04 10:22:15;;;;;;;4.63;4.43;;;9.00;99.90;;;;;;5035233;28;20556;-79
2024/01/04 10:24:43;;;;;;;6.23;5.83;;;9.00;99.90;;;;;;5037092;28;21085;-79
2024/01/04 10:27:16;;;;;;;4.33;4.13;;;9.00;90.10;;;;;;5037150;28;20489;-78
2024/01/04 10:29:48;;;;;;;4.40;4.30;;;9.00;52.90;;;;;;5035344;28;20484;-79
2024/01/04 10:32:17;;;;;;;4.20;4.10;;;9.00;70.40;;;;;;5035682;28;20463;-79
2024/01/04 10:34:46;;;;;;;4.87;4.60;;;9.00;10.40;;;;;;5036735;28;21143;-78
2024/01/04 10:37:17;;;;;;;5.00;4.80;;;8.90;12.20;;;;;;5037075;28;20487;-77
2024/01/04 10:39:56;;;;;;;4.57;4.33;;;9.00;2.70;;;;;;5037590;28;20468;-78
2024/01/04 10:42:25;;;;;;;5.20;4.90;;;9.00;1.00;;;;;;5036726;28;20476;-77
2024/01/04 10:44:54;;;;;;;3.90;3.70;;;8.90;1.00;;;;;;5037983;28;20452;-80
2024/01/04 10:47:24;;;;;;;6.53;4.23;;;8.80;1.00;;;;;;5036703;28;20448;-77
2024/01/04 10:49:59;;;;;;;4.40;3.77;;;8.90;1.70;;;;;;5038159;28;20500;-79
2024/01/04 10:52:31;;;;;;;4.40;4.10;;;9.00;30.00;;;;;;5037928;28;20454;-79
2024/01/04 10:55:01;;;;;;;5.20;4.77;;;9.00;53.50;;;;;;5037370;28;20467;-78
2024/01/04 10:57:31;;;;;;;5.00;4.60;;;9.00;99.90;;;;;;5037383;28;20440;-80
2024/01/04 11:00:03;;;;;;;4.93;4.53;;;9.10;99.90;;;;;;5039719;28;20482;-79
2024/01/04 11:02:35;;;;;;;5.13;4.73;;;9.10;99.90;;;;;;5035672;28;20533;-78
2024/01/04 11:05:09;;;;;;;5.20;4.50;;;9.10;99.90;;;;;;5038125;28;20437;-78
2024/01/04 11:07:39;;;;;;;4.97;4.77;;;9.10;99.90;;;;;;5036520;28;20452;-78
2024/01/04 11:10:10;;;;;;;4.73;4.53;;;9.20;99.90;;;;;;5034146;28;20461;-78
2024/01/04 11:12:39;;;;;;;4.70;4.50;;;9.20;99.90;;;;;;5036627;28;20444;-79
2024/01/04 11:15:12;;;;;;;4.80;4.60;;;9.20;99.90;;;;;;5037563;28;20456;-78
2024/01/04 11:18:02;;;;;;;4.87;4.67;;;9.30;99.90;;;;;;5036844;28;20466;-78
2024/01/04 11:20:46;;;;;;;4.83;4.53;;;9.30;99.90;;;;;;5035788;28;20493;-77
2024/01/04 11:23:34;;;;;;;4.30;4.10;;;9.20;99.90;;;;;;5038325;28;20507;-78
2024/01/04 11:26:24;;;;;;;4.30;4.00;;;9.20;34.00;;;;;;5034613;28;21209;-78
2024/01/04 11:28:57;;;;;;;4.43;4.23;;;9.20;53.70;;;;;;5035616;28;20538;-78
2024/01/04 11:31:26;;;;;;;4.33;3.90;;;9.10;4.60;;;;;;5038055;28;21322;-77
2024/01/04 11:33:54;;;;;;;4.67;3.90;;;9.10;1.00;;;;;;5036500;28;21014;-77
2024/01/04 11:36:24;;;;;;;4.47;4.20;;;9.10;1.00;;;;;;5034785;28;20475;-78
2024/01/04 11:38:57;;;;;;;4.20;4.00;;;9.30;31.60;;;;;;5036598;28;20480;-78
2024/01/04 11:41:32;;;;;;;4.47;4.17;;;9.50;1.00;;;;;;5037961;28;20480;-78
2024/01/04 11:44:01;;;;;;;3.97;3.87;;;9.80;1.00;;;;;;5035266;28;20444;-78
2024/01/04 11:46:30;;;;;;;3.90;3.70;;;10.00;1.00;;;;;;5033489;28;21119;-79
2024/01/04 11:49:02;;;;;;;5.77;4.60;;;10.10;1.00;;;;;;5035564;28;20452;-79
2024/01/04 11:51:46;;;;;;;5.33;4.23;;;10.30;1.00;;;;;;5035309;28;20465;-78
2024/01/04 11:54:17;;;;;;;3.77;3.67;;;10.30;1.00;;;;;;5037844;28;20453;-78
2024/01/04 11:56:47;;;;;;;3.87;3.70;;;10.30;99.90;;;;;;5040366;28;20448;-79
2024/01/04 11:59:17;;;;;;;4.10;3.63;;;10.40;99.90;;;;;;5035110;28;21029;-79
2024/01/04 12:01:46;;;;;;;4.50;4.20;;;10.40;99.90;;;;;;5036846;28;20476;-80
2024/01/04 12:04:16;;;;;;;4.50;4.10;;;10.40;99.90;;;;;;5035096;28;20874;-78
2024/01/04 12:06:47;;;;;;;4.63;4.23;;;10.30;99.90;;;;;;5038346;28;20456;-79
2024/01/04 12:09:16;;;;;;;5.13;3.60;;;10.20;99.90;;;;;;5036530;28;20463;-78
2024/01/04 12:11:54;;;;;;;3.37;3.27;;;10.20;99.90;;;;;;5036050;28;20489;-78
2024/01/04 12:14:23;;;;;;;3.60;3.50;;;10.10;99.90;;;;;;5041909;28;20459;-79
2024/01/04 12:16:52;;;;;;;4.90;4.47;;;10.00;99.90;;;;;;5039674;28;20975;-78
2024/01/04 12:19:20;;;;;;;4.63;4.20;;;10.00;99.90;;;;;;5041812;28;20440;-78
2024/01/04 12:21:50;;;;;;;5.30;4.23;;;9.90;99.90;;;;;;5038197;28;20530;-79
2024/01/04 12:24:19;;;;;;;4.03;3.73;;;9.80;99.90;;;;;;5039873;28;20531;-78
2024/01/04 12:26:48;;;;;;;3.83;3.73;;;9.80;99.90;;;;;;5042544;28;20916;-78
2024/01/04 12:29:16;;;;;;;3.90;3.60;;;9.90;99.90;;;;;;5039475;28;20491;-78
2024/01/04 12:31:44;;;;;;;3.60;3.40;;;10.10;1.00;;;;;;5039999;28;20460;-76
2024/01/04 12:34:13;;;;;;;4.20;4.00;;;10.20;1.00;;;;;;5040057;28;20449;-79
2024/01/04 12:36:42;;;;;;;4.40;4.20;;;10.20;99.90;;;;;;5037491;28;20520;-78
2024/01/04 12:39:13;;;;;;;4.73;4.43;;;10.10;1.00;;;;;;5040133;28;20479;-78
2024/01/04 12:41:44;;;;;;;3.77;3.67;;;10.00;99.90;;;;;;5040006;28;20462;-78
2024/01/04 12:44:15;;;;;;;3.80;3.50;;;10.00;99.90;;;;;;5040087;28;20975;-79
2024/01/04 12:46:44;;;;;;;3.00;2.90;;;9.90;99.90;;;;;;5039382;28;20464;-78
2024/01/04 12:49:13;;;;;;;4.23;3.93;;;9.80;1.00;;;;;;5037153;28;20484;-78
2024/01/04 12:51:47;;;;;;;3.80;3.60;;;9.80;1.00;;;;;;5035455;28;20549;-78
2024/01/04 12:54:17;;;;;;;3.70;3.60;;;9.90;99.90;;;;;;5038306;28;20453;-79
2024/01/04 12:56:45;;;;;;;3.73;3.63;;;10.00;99.90;;;;;;5053358;28;20454;-79
2024/01/04 12:59:15;;;;;;;3.50;3.40;;;10.10;99.90;;;;;;5039103;28;20452;-79
2024/01/04 13:01:43;;;;;;;4.03;3.80;;;10.10;99.90;;;;;;5039008;28;20884;-78
2024/01/04 13:04:11;;;;;;;3.47;3.37;;;10.00;99.90;;;;;;5041665;28;20447;-78
2024/01/04 13:06:40;;;;;;;4.27;4.10;;;10.10;99.90;;;;;;5041007;28;20502;-81
2024/01/04 13:09:10;;;;;;;3.70;3.47;;;10.00;99.90;;;;;;5039915;28;20543;-79
2024/01/04 13:11:40;;;;;;;4.10;3.80;;;10.10;99.90;;;;;;5035659;28;20483;-79